createdAt,value
2017-06-06T00:00:31.712Z,1000.13
2017-06-06T00:01:33.130Z,1000.18
2017-06-06T00:02:34.547Z,1000.15
2017-06-06T00:03:35.969Z,1000.11
2017-06-06T00:04:37.384Z,1000.09
2017-06-06T00:05:38.797Z,1000.09
2017-06-06T00:06:40.217Z,1000.09
2017-06-06T00:07:41.645Z,1000.08
2017-06-06T00:08:43.066Z,1000.08
2017-06-06T00:09:44.480Z,1000.06
2017-06-06T00:10:45.911Z,1000.08
2017-06-06T00:11:47.324Z,1000.06
2017-06-06T00:12:48.742Z,1000.00
2017-06-06T00:13:50.152Z,1000.01
2017-06-06T00:14:51.570Z,1000.00
2017-06-06T00:15:52.984Z,1000.00
2017-06-06T00:16:54.403Z,999.98
2017-06-06T00:17:55.818Z,999.95
2017-06-06T00:18:57.235Z,999.93
2017-06-06T00:19:58.648Z,999.89
2017-06-06T00:21:00.065Z,999.83
2017-06-06T00:22:01.486Z,999.85
2017-06-06T00:23:02.895Z,999.84
2017-06-06T00:24:04.318Z,999.80
2017-06-06T00:25:05.734Z,999.75
2017-06-06T00:26:07.159Z,999.74
2017-06-06T00:27:08.573Z,999.75
2017-06-06T00:28:09.988Z,999.71
2017-06-06T00:29:11.404Z,999.69
2017-06-06T00:30:12.823Z,999.66
2017-06-06T00:31:14.254Z,999.63
2017-06-06T00:32:15.661Z,999.62
2017-06-06T00:33:17.079Z,999.57
2017-06-06T00:34:18.497Z,999.61
2017-06-06T00:35:19.911Z,999.61
2017-06-06T00:36:21.331Z,999.55
2017-06-06T00:37:22.756Z,999.55
2017-06-06T00:38:24.185Z,999.49
2017-06-06T00:39:25.602Z,999.47
2017-06-06T00:40:27.021Z,999.45
2017-06-06T00:41:28.452Z,999.47
2017-06-06T00:42:29.912Z,999.43
2017-06-06T00:43:31.337Z,999.41
2017-06-06T00:44:32.749Z,999.37
2017-06-06T00:45:34.168Z,999.41
2017-06-06T00:46:35.585Z,999.36
2017-06-06T00:47:37.002Z,999.35
2017-06-06T00:48:38.427Z,999.33
2017-06-06T00:49:39.839Z,999.35
2017-06-06T00:50:41.261Z,999.28
2017-06-06T00:51:42.677Z,999.31
2017-06-06T00:52:44.101Z,999.29
2017-06-06T00:53:45.517Z,999.23
2017-06-06T00:54:46.934Z,999.25
2017-06-06T00:55:48.351Z,999.21
2017-06-06T00:56:49.797Z,999.21
2017-06-06T00:57:51.179Z,999.18
2017-06-06T00:58:52.604Z,999.20
2017-06-06T00:59:54.024Z,999.16
2017-06-06T01:00:55.447Z,999.12
2017-06-06T01:01:56.872Z,999.14
2017-06-06T01:02:58.283Z,999.07
2017-06-06T01:03:59.697Z,999.09
2017-06-06T01:05:01.114Z,999.07
2017-06-06T01:06:02.531Z,999.02
2017-06-06T01:07:03.951Z,998.99
2017-06-06T01:08:05.377Z,998.97
2017-06-06T01:09:06.796Z,998.96
2017-06-06T01:10:08.212Z,998.96
2017-06-06T01:11:09.624Z,998.90
2017-06-06T01:12:11.041Z,998.91
2017-06-06T01:13:12.459Z,998.83
2017-06-06T01:14:13.878Z,998.86
2017-06-06T01:15:15.296Z,998.83
2017-06-06T01:16:16.723Z,998.88
2017-06-06T01:17:18.144Z,998.81
2017-06-06T01:18:19.555Z,998.77
2017-06-06T01:19:20.970Z,998.75
2017-06-06T01:20:22.387Z,998.76
2017-06-06T01:21:23.813Z,998.70
2017-06-06T01:22:25.235Z,998.74
2017-06-06T01:23:26.656Z,998.71
2017-06-06T01:24:28.072Z,998.68
2017-06-06T01:25:29.489Z,998.64
2017-06-06T01:26:30.908Z,998.64
2017-06-06T01:27:32.325Z,998.60
2017-06-06T01:28:33.738Z,998.61
2017-06-06T01:29:35.158Z,998.59
2017-06-06T01:30:36.576Z,998.56
2017-06-06T01:31:38.010Z,998.53
2017-06-06T01:32:39.433Z,998.52
2017-06-06T01:33:40.851Z,998.51
2017-06-06T01:34:42.267Z,998.47
2017-06-06T01:35:43.687Z,998.43
2017-06-06T01:36:45.105Z,998.43
2017-06-06T01:37:46.524Z,998.36
2017-06-06T01:38:47.936Z,998.42
2017-06-06T01:39:49.372Z,998.40
2017-06-06T01:40:50.785Z,998.36
2017-06-06T01:41:52.203Z,998.33
2017-06-06T01:42:53.625Z,998.27
2017-06-06T01:43:55.043Z,998.26
2017-06-06T01:44:56.459Z,998.25
2017-06-06T01:45:57.877Z,998.25
2017-06-06T01:46:59.296Z,998.19
2017-06-06T01:48:00.706Z,998.18
2017-06-06T01:49:02.129Z,998.18
2017-06-06T01:50:03.549Z,998.12
2017-06-06T01:51:04.967Z,998.14
2017-06-06T01:52:06.384Z,998.11
2017-06-06T01:53:07.801Z,998.13
2017-06-06T01:54:09.216Z,998.08
2017-06-06T01:55:10.636Z,998.07
2017-06-06T01:56:12.061Z,998.06
2017-06-06T01:57:13.482Z,998.04
2017-06-06T01:58:14.900Z,998.02
2017-06-06T01:59:16.320Z,997.97
2017-06-06T02:00:17.736Z,997.98
2017-06-06T02:01:19.154Z,997.93
2017-06-06T02:02:20.571Z,997.92
2017-06-06T02:03:21.984Z,997.91
2017-06-06T02:04:23.398Z,997.88
2017-06-06T02:05:24.817Z,997.87
2017-06-06T02:06:26.243Z,997.86
2017-06-06T02:07:27.661Z,997.83
2017-06-06T02:08:29.072Z,997.81
2017-06-06T02:09:30.488Z,997.81
2017-06-06T02:10:31.911Z,997.82
2017-06-06T02:11:33.332Z,997.77
2017-06-06T02:12:34.753Z,997.78
2017-06-06T02:13:36.172Z,997.66
2017-06-06T02:14:37.627Z,997.66
2017-06-06T02:15:39.037Z,997.66
2017-06-06T02:16:40.450Z,997.65
2017-06-06T02:17:41.885Z,997.62
2017-06-06T02:18:43.302Z,997.57
2017-06-06T02:19:44.717Z,997.54
2017-06-06T02:20:46.132Z,997.53
2017-06-06T02:21:47.546Z,997.51
2017-06-06T02:22:48.959Z,997.51
2017-06-06T02:23:50.374Z,997.48
2017-06-06T02:24:51.789Z,997.44
2017-06-06T02:25:53.205Z,997.41
2017-06-06T02:26:54.652Z,997.37
2017-06-06T02:27:56.089Z,997.35
2017-06-06T02:28:57.502Z,997.34
2017-06-06T02:29:58.919Z,997.28
2017-06-06T02:31:00.344Z,997.30
2017-06-06T02:32:01.780Z,997.27
2017-06-06T02:33:03.198Z,997.26
2017-06-06T02:34:04.624Z,997.27
2017-06-06T02:35:06.347Z,997.21
2017-06-06T02:36:07.789Z,997.23
2017-06-06T02:37:09.198Z,997.23
2017-06-06T02:38:10.616Z,997.16
2017-06-06T02:39:12.035Z,997.23
2017-06-06T02:40:13.472Z,997.20
2017-06-06T02:41:14.888Z,997.18
2017-06-06T02:42:16.305Z,997.10
2017-06-06T02:43:17.712Z,997.12
2017-06-06T02:44:19.147Z,997.14
2017-06-06T02:45:20.573Z,997.10
2017-06-06T02:46:22.004Z,997.10
2017-06-06T02:47:23.455Z,997.13
2017-06-06T02:48:24.896Z,997.08
2017-06-06T02:49:26.325Z,997.05
2017-06-06T02:50:27.740Z,997.05
2017-06-06T02:51:29.155Z,997.02
2017-06-06T02:52:30.609Z,997.05
2017-06-06T02:53:32.024Z,996.99
2017-06-06T02:54:33.435Z,997.00
2017-06-06T02:55:34.868Z,996.98
2017-06-06T02:56:36.297Z,996.95
2017-06-06T02:57:37.698Z,996.94
2017-06-06T02:58:39.112Z,996.92
2017-06-06T02:59:40.539Z,996.90
2017-06-06T03:00:41.966Z,996.88
2017-06-06T03:01:43.381Z,996.84
2017-06-06T03:02:44.805Z,996.81
2017-06-06T03:03:46.224Z,996.82
2017-06-06T03:04:47.637Z,996.75
2017-06-06T03:05:49.061Z,996.74
2017-06-06T03:06:50.473Z,996.76
2017-06-06T03:07:51.892Z,996.71
2017-06-06T03:08:53.322Z,996.69
2017-06-06T03:09:54.736Z,996.69
2017-06-06T03:10:56.158Z,996.66
2017-06-06T03:11:57.570Z,996.63
2017-06-06T03:12:58.988Z,996.56
2017-06-06T03:14:00.403Z,996.55
2017-06-06T03:15:01.817Z,996.59
2017-06-06T03:16:03.246Z,996.55
2017-06-06T03:17:04.660Z,996.51
2017-06-06T03:18:06.074Z,996.47
2017-06-06T03:19:07.492Z,996.44
2017-06-06T03:20:08.910Z,996.41
2017-06-06T03:21:10.326Z,996.40
2017-06-06T03:22:11.740Z,996.35
2017-06-06T03:23:13.158Z,996.37
2017-06-06T03:24:14.578Z,996.35
2017-06-06T03:25:15.992Z,996.34
2017-06-06T03:26:17.458Z,996.37
2017-06-06T03:27:18.863Z,996.29
2017-06-06T03:28:20.284Z,996.26
2017-06-06T03:29:27.551Z,996.25
2017-06-06T03:30:32.524Z,996.26
2017-06-06T03:31:33.706Z,996.25
2017-06-06T03:32:35.130Z,996.23
2017-06-06T03:33:36.556Z,996.18
2017-06-06T03:34:37.982Z,996.15
2017-06-06T03:35:39.391Z,996.10
2017-06-06T03:36:40.806Z,996.05
2017-06-06T03:37:42.270Z,996.06
2017-06-06T03:38:43.668Z,996.02
2017-06-06T03:39:45.091Z,995.99
2017-06-06T03:40:46.524Z,995.91
2017-06-06T03:41:47.932Z,995.96
2017-06-06T03:42:49.348Z,995.88
2017-06-06T03:43:50.762Z,995.85
2017-06-06T03:44:52.193Z,995.78
2017-06-06T03:45:53.632Z,995.76
2017-06-06T03:46:55.039Z,995.75
2017-06-06T03:47:56.460Z,995.72
2017-06-06T03:48:57.881Z,995.73
2017-06-06T03:49:59.308Z,995.72
2017-06-06T03:51:00.733Z,995.64
2017-06-06T03:52:02.164Z,995.60
2017-06-06T03:53:03.580Z,995.59
2017-06-06T03:54:05.006Z,995.58
2017-06-06T03:55:06.478Z,995.54
2017-06-06T03:56:07.904Z,995.57
2017-06-06T03:57:09.321Z,995.46
2017-06-06T03:58:10.742Z,995.51
2017-06-06T03:59:12.179Z,995.52
2017-06-06T04:00:13.603Z,995.50
2017-06-06T04:01:15.037Z,995.54
2017-06-06T04:02:16.438Z,995.49
2017-06-06T04:03:17.854Z,995.49
2017-06-06T04:04:19.283Z,995.51
2017-06-06T04:05:20.705Z,995.51
2017-06-06T04:06:22.121Z,995.53
2017-06-06T04:07:23.547Z,995.52
2017-06-06T04:08:24.965Z,995.47
2017-06-06T04:09:26.381Z,995.46
2017-06-06T04:10:27.815Z,995.50
2017-06-06T04:11:29.215Z,995.52
2017-06-06T04:12:30.632Z,995.54
2017-06-06T04:13:32.051Z,995.46
2017-06-06T04:14:33.475Z,995.43
2017-06-06T04:15:34.893Z,995.42
2017-06-06T04:16:36.312Z,995.41
2017-06-06T04:17:37.730Z,995.39
2017-06-06T04:18:39.151Z,995.34
2017-06-06T04:19:40.570Z,995.36
2017-06-06T04:20:41.988Z,995.35
2017-06-06T04:21:43.412Z,995.35
2017-06-06T04:22:44.837Z,995.34
2017-06-06T04:23:46.256Z,995.33
2017-06-06T04:24:47.672Z,995.41
2017-06-06T04:25:49.090Z,995.38
2017-06-06T04:26:50.512Z,995.40
2017-06-06T04:27:51.934Z,995.39
2017-06-06T04:28:53.356Z,995.41
2017-06-06T04:29:54.779Z,995.35
2017-06-06T04:30:56.196Z,995.30
2017-06-06T04:31:57.619Z,995.24
2017-06-06T04:32:59.036Z,995.31
2017-06-06T04:34:00.457Z,995.28
2017-06-06T04:35:01.871Z,995.27
2017-06-06T04:36:03.293Z,995.29
2017-06-06T04:37:04.725Z,995.27
2017-06-06T04:38:06.143Z,995.25
2017-06-06T04:39:07.573Z,995.19
2017-06-06T04:40:08.998Z,995.21
2017-06-06T04:41:10.418Z,995.17
2017-06-06T04:42:11.833Z,995.17
2017-06-06T04:43:13.256Z,995.11
2017-06-06T04:44:14.677Z,995.07
2017-06-06T04:45:16.095Z,995.14
2017-06-06T04:46:17.508Z,995.08
2017-06-06T04:47:18.933Z,995.04
2017-06-06T04:48:20.410Z,995.04
2017-06-06T04:49:21.836Z,995.04
2017-06-06T04:50:23.251Z,995.06
2017-06-06T04:51:24.685Z,995.07
2017-06-06T04:52:26.103Z,995.05
2017-06-06T04:53:27.520Z,995.01
2017-06-06T04:54:28.940Z,995.06
2017-06-06T04:55:30.356Z,995.11
2017-06-06T04:56:31.788Z,995.02
2017-06-06T04:57:33.358Z,995.02
2017-06-06T04:58:35.053Z,995.08
2017-06-06T04:59:37.916Z,995.03
2017-06-06T05:00:40.241Z,995.01
2017-06-06T05:01:42.484Z,994.99
2017-06-06T05:02:44.474Z,994.91
2017-06-06T05:03:45.863Z,994.92
2017-06-06T05:04:47.315Z,994.92
2017-06-06T05:05:48.770Z,994.86
2017-06-06T05:06:50.223Z,994.80
2017-06-06T05:07:51.648Z,994.78
2017-06-06T05:08:53.080Z,994.84
2017-06-06T05:09:54.857Z,994.80
2017-06-06T05:10:57.559Z,994.72
2017-06-06T05:11:58.850Z,994.75
2017-06-06T05:13:01.109Z,994.75
2017-06-06T05:14:03.442Z,994.68
2017-06-06T05:15:04.874Z,994.70
2017-06-06T05:16:06.296Z,994.76
2017-06-06T05:17:07.712Z,994.76
2017-06-06T05:18:09.128Z,994.85
2017-06-06T05:19:10.552Z,994.83
2017-06-06T05:20:11.984Z,994.81
2017-06-06T05:21:13.395Z,994.82
2017-06-06T05:22:14.817Z,994.85
2017-06-06T05:23:16.228Z,994.80
2017-06-06T05:24:17.676Z,994.78
2017-06-06T05:25:19.119Z,994.81
2017-06-06T05:26:20.551Z,994.78
2017-06-06T05:27:21.979Z,994.77
2017-06-06T05:28:23.395Z,994.64
2017-06-06T05:29:24.814Z,994.73
2017-06-06T05:30:29.444Z,994.73
2017-06-06T05:31:30.857Z,994.77
2017-06-06T05:32:32.286Z,994.70
2017-06-06T05:33:33.715Z,994.67
2017-06-06T05:34:35.133Z,994.67
2017-06-06T05:35:36.551Z,994.67
2017-06-06T05:36:37.980Z,994.66
2017-06-06T05:37:41.462Z,994.61
2017-06-06T05:38:42.878Z,994.62
2017-06-06T05:39:44.296Z,994.67
2017-06-06T05:40:45.719Z,994.63
2017-06-06T05:41:48.064Z,994.60
2017-06-06T05:42:49.489Z,994.56
2017-06-06T05:43:50.907Z,994.64
2017-06-06T05:44:52.326Z,994.62
2017-06-06T05:45:53.752Z,994.62
2017-06-06T05:46:55.172Z,994.67
2017-06-06T05:47:56.595Z,994.56
2017-06-06T05:48:58.065Z,994.60
2017-06-06T05:49:59.480Z,994.61
2017-06-06T05:51:00.903Z,994.62
2017-06-06T05:52:02.326Z,994.58
2017-06-06T05:53:03.749Z,994.66
2017-06-06T05:54:05.165Z,994.78
2017-06-06T05:55:06.672Z,994.72
2017-06-06T05:56:08.094Z,994.65
2017-06-06T05:57:09.507Z,994.61
2017-06-06T05:58:10.927Z,994.68
2017-06-06T05:59:12.343Z,994.60
2017-06-06T06:00:13.766Z,994.67
2017-06-06T06:01:15.193Z,994.59
2017-06-06T06:02:16.620Z,994.66
2017-06-06T06:03:18.043Z,994.54
2017-06-06T06:04:19.456Z,994.63
2017-06-06T06:05:20.875Z,994.61
2017-06-06T06:06:22.382Z,994.55
2017-06-06T06:07:23.797Z,994.64
2017-06-06T06:08:25.394Z,994.56
2017-06-06T06:09:26.824Z,994.60
2017-06-06T06:10:28.237Z,994.55
2017-06-06T06:11:29.655Z,994.52
2017-06-06T06:12:31.076Z,994.47
2017-06-06T06:13:32.494Z,994.47
2017-06-06T06:14:33.930Z,994.58
2017-06-06T06:15:35.394Z,994.75
2017-06-06T06:16:36.817Z,994.67
2017-06-06T06:17:38.279Z,994.51
2017-06-06T06:18:39.728Z,994.49
2017-06-06T06:19:41.133Z,994.50
2017-06-06T06:20:42.621Z,994.48
2017-06-06T06:21:44.040Z,994.41
2017-06-06T06:22:45.459Z,994.40
2017-06-06T06:23:46.878Z,994.40
2017-06-06T06:24:48.300Z,994.37
2017-06-06T06:25:49.737Z,994.35
2017-06-06T06:26:51.151Z,994.31
2017-06-06T06:27:52.608Z,994.33
2017-06-06T06:28:54.024Z,994.32
2017-06-06T06:29:55.444Z,994.34
2017-06-06T06:30:56.863Z,994.29
2017-06-06T06:31:58.278Z,994.31
2017-06-06T06:32:59.696Z,994.19
2017-06-06T06:34:01.125Z,994.24
2017-06-06T06:35:02.538Z,994.13
2017-06-06T06:36:03.959Z,994.16
2017-06-06T06:37:05.382Z,994.23
2017-06-06T06:38:06.801Z,994.10
2017-06-06T06:39:08.222Z,994.17
2017-06-06T06:40:09.670Z,994.30
2017-06-06T06:41:11.064Z,994.24
2017-06-06T06:42:12.590Z,994.32
2017-06-06T06:43:14.408Z,994.25
2017-06-06T06:44:15.753Z,994.18
2017-06-06T06:45:17.178Z,994.13
2017-06-06T06:46:18.593Z,994.20
2017-06-06T06:47:20.016Z,994.24
2017-06-06T06:48:21.431Z,994.34
2017-06-06T06:49:22.854Z,994.38
2017-06-06T06:50:24.328Z,994.33
2017-06-06T06:51:25.771Z,994.34
2017-06-06T06:52:27.193Z,994.34
2017-06-06T06:53:28.651Z,994.41
2017-06-06T06:54:30.067Z,994.41
2017-06-06T06:55:31.488Z,994.38
2017-06-06T06:56:32.900Z,994.42
2017-06-06T06:57:34.324Z,994.43
2017-06-06T06:58:35.750Z,994.41
2017-06-06T06:59:37.170Z,994.41
2017-06-06T07:00:38.590Z,994.37
2017-06-06T07:01:40.199Z,994.41
2017-06-06T07:02:41.782Z,994.40
2017-06-06T07:03:43.201Z,994.39
2017-06-06T07:04:44.630Z,994.47
2017-06-06T07:05:46.043Z,994.44
2017-06-06T07:06:47.459Z,994.45
2017-06-06T07:07:48.896Z,994.41
2017-06-06T07:08:50.313Z,994.45
2017-06-06T07:09:51.804Z,994.42
2017-06-06T07:10:53.220Z,994.36
2017-06-06T07:11:54.712Z,994.33
2017-06-06T07:12:56.324Z,994.29
2017-06-06T07:13:57.760Z,994.28
2017-06-06T07:14:59.175Z,994.23
2017-06-06T07:16:00.607Z,994.27
2017-06-06T07:17:02.046Z,994.21
2017-06-06T07:18:03.494Z,994.23
2017-06-06T07:19:04.937Z,994.19
2017-06-06T07:20:06.366Z,994.20
2017-06-06T07:21:07.787Z,994.22
2017-06-06T07:22:09.204Z,994.19
2017-06-06T07:23:10.640Z,994.20
2017-06-06T07:24:12.143Z,994.17
2017-06-06T07:25:13.567Z,994.16
2017-06-06T07:26:14.984Z,994.15
2017-06-06T07:27:17.153Z,994.17
2017-06-06T07:28:18.567Z,994.17
2017-06-06T07:29:20.009Z,994.17
2017-06-06T07:30:21.470Z,994.20
2017-06-06T07:31:22.887Z,994.19
2017-06-06T07:32:24.369Z,994.15
2017-06-06T07:33:25.783Z,994.13
2017-06-06T07:34:27.208Z,994.13
2017-06-06T07:35:28.645Z,994.08
2017-06-06T07:36:30.086Z,994.05
2017-06-06T07:37:31.539Z,994.05
2017-06-06T07:38:32.985Z,994.03
2017-06-06T07:39:34.407Z,993.95
2017-06-06T07:40:35.834Z,993.95
2017-06-06T07:41:37.250Z,993.93
2017-06-06T07:42:38.684Z,993.99
2017-06-06T07:43:40.107Z,993.99
2017-06-06T07:44:41.539Z,994.01
2017-06-06T07:45:42.959Z,994.05
2017-06-06T07:46:44.456Z,994.09
2017-06-06T07:47:45.860Z,994.08
2017-06-06T07:48:47.291Z,994.05
2017-06-06T07:49:48.750Z,994.05
2017-06-06T07:50:50.154Z,994.03
2017-06-06T07:51:51.575Z,994.04
2017-06-06T07:52:52.990Z,993.97
2017-06-06T07:53:54.415Z,993.96
2017-06-06T07:54:55.829Z,993.96
2017-06-06T07:55:57.272Z,993.92
2017-06-06T07:56:58.711Z,993.93
2017-06-06T07:58:00.140Z,993.90
2017-06-06T07:59:01.562Z,993.87
2017-06-06T08:00:02.978Z,993.83
2017-06-06T08:01:04.392Z,993.89
2017-06-06T08:02:05.810Z,993.92
2017-06-06T08:03:07.226Z,993.94
2017-06-06T08:04:08.659Z,993.89
2017-06-06T08:05:10.905Z,993.95
2017-06-06T08:06:12.322Z,993.90
2017-06-06T08:07:13.756Z,993.92
2017-06-06T08:08:15.176Z,993.91
2017-06-06T08:09:16.592Z,993.91
2017-06-06T08:10:18.014Z,993.89
2017-06-06T08:11:19.440Z,993.89
2017-06-06T08:12:20.862Z,993.83
2017-06-06T08:13:22.325Z,993.78
2017-06-06T08:14:23.767Z,993.77
2017-06-06T08:15:25.181Z,993.77
2017-06-06T08:16:26.610Z,993.73
2017-06-06T08:17:28.029Z,993.70
2017-06-06T08:18:29.528Z,993.69
2017-06-06T08:19:30.957Z,993.60
2017-06-06T08:20:32.405Z,993.66
2017-06-06T08:21:34.916Z,993.70
2017-06-06T08:22:36.282Z,993.66
2017-06-06T08:23:37.705Z,993.72
2017-06-06T08:24:39.125Z,993.72
2017-06-06T08:25:40.545Z,993.75
2017-06-06T08:26:41.971Z,993.80
2017-06-06T08:27:43.412Z,993.83
2017-06-06T08:28:44.895Z,993.83
2017-06-06T08:29:46.312Z,993.82
2017-06-06T08:30:47.846Z,993.86
2017-06-06T08:31:49.266Z,993.80
2017-06-06T08:32:50.691Z,993.77
2017-06-06T08:33:52.116Z,993.87
2017-06-06T08:34:53.535Z,993.81
2017-06-06T08:35:54.968Z,993.81
2017-06-06T08:36:56.389Z,993.83
2017-06-06T08:37:57.985Z,993.78
2017-06-06T08:38:59.432Z,993.80
2017-06-06T08:40:00.867Z,993.76
2017-06-06T08:41:02.301Z,993.72
2017-06-06T08:42:03.762Z,993.75
2017-06-06T08:43:05.231Z,993.69
2017-06-06T08:44:06.648Z,993.68
2017-06-06T08:45:08.096Z,993.72
2017-06-06T08:46:09.516Z,993.67
2017-06-06T08:47:10.945Z,993.66
2017-06-06T08:48:12.369Z,993.75
2017-06-06T08:49:13.786Z,993.78
2017-06-06T08:50:15.207Z,993.76
2017-06-06T08:51:16.625Z,993.71
2017-06-06T08:52:18.048Z,993.68
2017-06-06T08:53:19.468Z,993.69
2017-06-06T08:54:20.891Z,993.69
2017-06-06T08:55:23.068Z,993.70
2017-06-06T08:56:25.774Z,993.62
2017-06-06T08:57:27.874Z,993.66
2017-06-06T08:58:29.301Z,993.63
2017-06-06T08:59:32.627Z,993.63
2017-06-06T09:00:33.206Z,993.63
2017-06-06T09:01:35.237Z,993.61
2017-06-06T09:02:37.085Z,993.57
2017-06-06T09:03:38.502Z,993.66
2017-06-06T09:04:42.858Z,993.61
2017-06-06T09:05:46.294Z,993.61
2017-06-06T09:06:49.863Z,993.62
2017-06-06T09:07:53.549Z,993.62
2017-06-06T09:08:55.320Z,993.62
2017-06-06T09:09:56.748Z,993.66
2017-06-06T09:10:58.168Z,993.65
2017-06-06T09:12:02.034Z,993.62
2017-06-06T09:13:03.423Z,993.64
2017-06-06T09:14:04.842Z,993.71
2017-06-06T09:15:06.264Z,993.75
2017-06-06T09:16:09.892Z,993.83
2017-06-06T09:17:12.599Z,993.76
2017-06-06T09:18:16.541Z,993.81
2017-06-06T09:19:22.462Z,993.89
2017-06-06T09:20:26.578Z,993.98
2017-06-06T09:21:27.998Z,994.03
2017-06-06T09:22:29.416Z,994.14
2017-06-06T09:23:30.846Z,994.04
2017-06-06T09:24:33.134Z,994.00
2017-06-06T09:25:34.559Z,994.08
2017-06-06T09:26:35.985Z,994.10
2017-06-06T09:27:37.404Z,994.17
2017-06-06T09:28:38.866Z,994.29
2017-06-06T09:29:43.191Z,994.27
2017-06-06T09:30:47.409Z,994.15
2017-06-06T09:31:48.790Z,994.19
2017-06-06T09:32:50.263Z,994.28
2017-06-06T09:33:54.473Z,994.31
2017-06-06T09:34:55.849Z,994.17
2017-06-06T09:35:57.309Z,994.26
2017-06-06T09:36:58.770Z,994.29
2017-06-06T09:38:03.341Z,994.30
2017-06-06T09:39:07.421Z,994.24
2017-06-06T09:40:09.746Z,994.23
2017-06-06T09:41:11.168Z,994.23
2017-06-06T09:42:12.603Z,994.33
2017-06-06T09:43:14.024Z,994.33
2017-06-06T09:44:17.533Z,994.26
2017-06-06T09:45:18.977Z,994.34
2017-06-06T09:46:23.797Z,994.30
2017-06-06T09:47:25.842Z,994.29
2017-06-06T09:48:28.791Z,994.29
2017-06-06T09:49:32.322Z,994.30
2017-06-06T09:50:34.132Z,994.34
2017-06-06T09:51:37.326Z,994.30
2017-06-06T09:52:38.772Z,994.27
2017-06-06T09:53:40.217Z,994.25
2017-06-06T09:54:42.001Z,994.21
2017-06-06T09:55:44.500Z,994.26
2017-06-06T09:56:46.881Z,994.26
2017-06-06T09:57:48.296Z,994.32
2017-06-06T09:58:51.989Z,994.31
2017-06-06T09:59:56.427Z,994.35
2017-06-06T10:00:57.917Z,994.39
2017-06-06T10:02:00.784Z,994.49
2017-06-06T10:03:02.203Z,994.49
2017-06-06T10:04:03.623Z,994.46
2017-06-06T10:05:05.062Z,994.45
2017-06-06T10:06:06.566Z,994.42
2017-06-06T10:07:07.925Z,994.49
2017-06-06T10:08:09.412Z,994.55
2017-06-06T10:09:10.823Z,994.61
2017-06-06T10:10:12.274Z,994.71
2017-06-06T10:11:13.700Z,994.75
2017-06-06T10:12:15.124Z,994.90
2017-06-06T10:13:16.573Z,995.09
2017-06-06T10:14:18.000Z,995.14
2017-06-06T10:15:19.442Z,995.05
2017-06-06T10:16:20.886Z,995.03
2017-06-06T10:17:22.293Z,995.10
2017-06-06T10:18:23.723Z,995.14
2017-06-06T10:19:25.141Z,995.18
2017-06-06T10:20:26.570Z,995.26
2017-06-06T10:21:27.999Z,995.23
2017-06-06T10:22:30.251Z,995.17
2017-06-06T10:23:31.629Z,995.17
2017-06-06T10:24:33.061Z,995.15
2017-06-06T10:25:34.480Z,995.24
2017-06-06T10:26:35.909Z,995.15
2017-06-06T10:27:37.339Z,995.16
2017-06-06T10:28:38.752Z,995.20
2017-06-06T10:29:40.177Z,995.22
2017-06-06T10:30:41.594Z,995.25
2017-06-06T10:31:43.084Z,995.33
2017-06-06T10:32:44.507Z,995.30
2017-06-06T10:33:45.933Z,995.28
2017-06-06T10:34:47.364Z,995.29
2017-06-06T10:35:48.783Z,995.29
2017-06-06T10:36:50.207Z,995.31
2017-06-06T10:37:51.621Z,995.38
2017-06-06T10:38:53.043Z,995.40
2017-06-06T10:39:54.481Z,995.40
2017-06-06T10:40:55.900Z,995.38
2017-06-06T10:41:57.323Z,995.42
2017-06-06T10:42:58.770Z,995.40
2017-06-06T10:44:00.192Z,995.44
2017-06-06T10:45:01.614Z,995.45
2017-06-06T10:46:03.035Z,995.51
2017-06-06T10:47:04.453Z,995.47
2017-06-06T10:48:05.872Z,995.53
2017-06-06T10:49:07.293Z,995.51
2017-06-06T10:50:08.718Z,995.48
2017-06-06T10:51:10.139Z,995.52
2017-06-06T10:52:11.560Z,995.53
2017-06-06T10:53:12.982Z,995.57
2017-06-06T10:54:14.408Z,995.58
2017-06-06T10:55:15.825Z,995.46
2017-06-06T10:56:17.253Z,995.59
2017-06-06T10:57:18.666Z,995.54
2017-06-06T10:58:20.088Z,995.60
2017-06-06T10:59:21.514Z,995.56
2017-06-06T11:00:22.934Z,995.60
2017-06-06T11:01:24.352Z,995.62
2017-06-06T11:02:25.796Z,995.60
2017-06-06T11:03:27.211Z,995.57
2017-06-06T11:04:28.635Z,995.60
2017-06-06T11:05:30.056Z,995.61
2017-06-06T11:06:31.494Z,995.63
2017-06-06T11:07:32.906Z,995.64
2017-06-06T11:08:34.348Z,995.70
2017-06-06T11:09:35.770Z,995.72
2017-06-06T11:10:37.190Z,995.66
2017-06-06T11:11:41.122Z,995.68
2017-06-06T11:12:46.562Z,995.57
2017-06-06T11:13:51.696Z,995.64
2017-06-06T11:14:56.813Z,995.65
2017-06-06T11:16:01.360Z,995.63
2017-06-06T11:17:07.675Z,995.62
2017-06-06T11:18:09.043Z,995.74
2017-06-06T11:19:12.221Z,995.69
2017-06-06T11:20:15.351Z,995.71
2017-06-06T11:21:20.804Z,995.66
2017-06-06T11:22:27.332Z,995.84
2017-06-06T11:23:32.240Z,995.72
2017-06-06T11:24:40.033Z,995.72
2017-06-06T11:25:42.220Z,995.76
2017-06-06T11:26:47.001Z,995.74
2017-06-06T11:27:49.601Z,995.72
2017-06-06T11:28:53.370Z,995.80
2017-06-06T11:29:56.958Z,995.81
2017-06-06T11:31:02.108Z,995.82
2017-06-06T11:32:06.043Z,995.91
2017-06-06T11:33:10.227Z,995.86
2017-06-06T11:34:14.905Z,996.06
2017-06-06T11:35:16.421Z,995.99
2017-06-06T11:36:17.844Z,995.98
2017-06-06T11:37:22.230Z,995.99
2017-06-06T11:38:27.990Z,996.10
2017-06-06T11:39:29.464Z,996.05
2017-06-06T11:40:34.792Z,996.11
2017-06-06T11:41:39.901Z,996.00
2017-06-06T11:42:45.123Z,996.07
2017-06-06T11:43:46.527Z,996.09
2017-06-06T11:44:47.963Z,996.00
2017-06-06T11:45:49.383Z,996.00
2017-06-06T11:46:50.806Z,996.05
2017-06-06T11:47:52.230Z,996.04
2017-06-06T11:48:53.676Z,996.03
2017-06-06T11:49:55.094Z,996.06
2017-06-06T11:50:56.526Z,996.14
2017-06-06T11:51:57.962Z,995.97
2017-06-06T11:52:59.386Z,996.08
2017-06-06T11:54:00.809Z,996.10
2017-06-06T11:55:02.463Z,996.00
2017-06-06T11:56:04.078Z,996.08
2017-06-06T11:57:05.661Z,996.10
2017-06-06T11:58:07.121Z,996.16
2017-06-06T11:59:08.656Z,996.20
2017-06-06T12:00:10.073Z,996.16
2017-06-06T12:01:11.959Z,996.13
2017-06-06T12:02:13.626Z,996.13
2017-06-06T12:03:15.308Z,996.14
2017-06-06T12:04:16.717Z,996.20
2017-06-06T12:05:18.514Z,996.22
2017-06-06T12:06:19.938Z,996.23
2017-06-06T12:07:21.359Z,996.19
2017-06-06T12:08:23.167Z,996.17
2017-06-06T12:09:25.849Z,996.22
2017-06-06T12:10:27.268Z,996.13
2017-06-06T12:11:28.909Z,996.13
2017-06-06T12:12:30.635Z,996.16
2017-06-06T12:13:32.050Z,996.21
2017-06-06T12:14:33.869Z,996.09
2017-06-06T12:15:35.282Z,996.10
2017-06-06T12:16:36.829Z,996.04
2017-06-06T12:17:40.404Z,996.05
2017-06-06T12:18:42.480Z,996.01
2017-06-06T12:19:44.442Z,996.01
2017-06-06T12:20:47.455Z,996.02
2017-06-06T12:21:50.134Z,996.09
2017-06-06T12:22:51.529Z,996.12
2017-06-06T12:23:53.767Z,996.09
2017-06-06T12:24:55.448Z,996.11
2017-06-06T12:25:57.247Z,996.07
2017-06-06T12:26:58.824Z,996.11
2017-06-06T12:28:00.563Z,996.11
2017-06-06T12:29:02.189Z,996.20
2017-06-06T12:30:03.607Z,996.29
2017-06-06T12:31:05.042Z,996.28
2017-06-06T12:32:06.629Z,996.30
2017-06-06T12:33:08.373Z,996.28
2017-06-06T12:34:09.861Z,996.36
2017-06-06T12:35:11.451Z,996.29
2017-06-06T12:36:12.921Z,996.35
2017-06-06T12:37:14.416Z,996.30
2017-06-06T12:38:15.869Z,996.34
2017-06-06T12:39:17.286Z,996.32
2017-06-06T12:40:18.709Z,996.40
2017-06-06T12:41:20.151Z,996.31
2017-06-06T12:42:21.562Z,996.35
2017-06-06T12:43:22.986Z,996.19
2017-06-06T12:44:24.406Z,996.24
2017-06-06T12:45:25.832Z,996.30
2017-06-06T12:46:27.505Z,996.33
2017-06-06T12:47:28.929Z,996.30
2017-06-06T12:48:30.347Z,996.29
2017-06-06T12:49:31.774Z,996.24